Time;durP1;ratioP1;P1;durP2;ratioP2;P2;SDS_P1;SDS_P2;PMS_P1;PMS_P2;Temp;Humidity;BMP_temperature;BMP_pressure;BME280_temperature;BME280_humidity;BME280_pressure;Samples;Min_cycle;Max_cycle;Signal;HPM_P1;HPM_P2
2021/06/02 00:01:51;;;;;;;3.14;2.28;;;;;;;10.66;76.23;99054.59;2024990;80;20201;-80
2021/06/02 00:04:54;;;;;;;5.63;2.17;;;;;;;10.64;76.41;99064.13;2028633;80;20274;-80
2021/06/02 00:07:58;;;;;;;6.70;2.22;;;;;;;10.57;76.68;99065.06;2024901;80;20214;-82
2021/06/02 00:11:04;;;;;;;3.09;2.24;;;;;;;10.53;77.17;99060.78;2022047;80;20179;-80
2021/06/02 00:14:07;;;;;;;5.16;2.41;;;;;;;10.46;77.11;99059.97;2021948;80;20271;-80
2021/06/02 00:17:11;;;;;;;2.24;1.90;;;;;;;10.39;77.36;99057.44;2019236;77;20744;-80
2021/06/02 00:20:14;;;;;;;3.42;2.38;;;;;;;10.33;77.49;99047.97;2017984;80;20208;-80
2021/06/02 00:23:17;;;;;;;3.03;2.22;;;;;;;10.27;77.94;99051.50;2019524;80;20229;-80
2021/06/02 00:26:20;;;;;;;4.65;2.15;;;;;;;10.23;78.09;99047.22;2016760;80;20233;-79
2021/06/02 00:29:33;;;;;;;3.41;1.70;;;;;;;10.23;78.28;99047.22;2018999;80;20200;-80
2021/06/02 00:32:36;;;;;;;2.79;1.84;;;;;;;10.18;78.47;99041.16;2023801;77;26555;-81
2021/06/02 00:35:44;;;;;;;3.24;1.59;;;;;;;10.10;78.65;99039.50;2027286;80;20207;-80
2021/06/02 00:38:47;;;;;;;2.60;2.09;;;;;;;10.05;78.87;99044.72;2025378;80;20273;-80
2021/06/02 00:41:49;;;;;;;3.70;1.66;;;;;;;10.06;79.17;99049.06;2026006;80;20188;-81
2021/06/02 00:44:54;;;;;;;2.34;1.88;;;;;;;10.04;79.08;99048.19;2027357;80;20197;-81
2021/06/02 00:47:57;;;;;;;5.38;1.75;;;;;;;10.01;79.18;99050.81;2020828;78;25540;-81
2021/06/02 00:51:00;;;;;;;3.06;2.04;;;;;;;9.93;79.22;99050.88;2020011;80;20213;-81
2021/06/02 00:54:07;;;;;;;3.74;1.80;;;;;;;9.93;79.48;99055.19;2022636;80;20691;-82
2021/06/02 00:57:14;;;;;;;1.55;1.45;;;;;;;9.88;79.36;99050.06;2021735;80;20728;-81
2021/06/02 01:00:17;;;;;;;1.89;1.69;;;;;;;9.90;79.07;99052.63;2017776;80;21025;-79
2021/06/02 01:03:22;;;;;;;3.59;2.09;;;;;;;9.90;79.02;99050.03;2024604;80;20236;-80
2021/06/02 01:06:27;;;;;;;2.74;1.69;;;;;;;9.88;78.95;99051.78;2026215;80;20171;-80
2021/06/02 01:09:33;;;;;;;4.81;1.90;;;;;;;9.82;79.09;99047.47;2026589;80;20183;-82
2021/06/02 01:12:40;;;;;;;3.90;1.92;;;;;;;9.73;79.46;99047.56;2026942;80;20221;-81
2021/06/02 01:15:45;;;;;;;2.45;1.56;;;;;;;9.59;80.07;99045.06;2029870;80;20197;-81
2021/06/02 01:18:48;;;;;;;3.59;1.90;;;;;;;9.58;80.43;99047.66;2029438;80;20734;-82
2021/06/02 01:21:59;;;;;;;2.99;1.88;;;;;;;9.61;80.49;99048.50;2027532;80;20191;-81
2021/06/02 01:25:13;;;;;;;2.16;1.39;;;;;;;9.61;80.24;99053.66;2030569;80;20233;-82
2021/06/02 01:28:16;;;;;;;3.67;1.45;;;;;;;9.63;80.27;99053.66;2027613;80;20172;-81
2021/06/02 01:31:41;;;;;;;2.17;1.74;;;;;;;9.63;80.03;99048.47;2027508;80;20221;-80
2021/06/02 01:34:59;;;;;;;1.76;1.50;;;;;;;9.60;79.65;99043.31;2028628;80;20176;-81
2021/06/02 01:38:42;;;;;;;2.38;1.42;;;;;;;9.57;79.36;99051.97;2023606;80;20172;-80
2021/06/02 01:42:12;;;;;;;1.75;1.48;;;;;;;9.54;79.49;99046.81;2026960;80;20232;-80
2021/06/02 01:45:52;;;;;;;1.55;1.45;;;;;;;9.48;79.93;99046.84;2025598;80;20282;-80
2021/06/02 01:49:13;;;;;;;2.50;1.40;;;;;;;9.38;80.46;99055.53;2026730;80;20200;-80
2021/06/02 01:52:44;;;;;;;1.63;1.52;;;;;;;9.39;80.51;99055.53;2023407;80;20712;-80
2021/06/02 01:56:17;;;;;;;3.21;2.75;;;;;;;9.40;80.63;99051.22;2031904;80;20214;-84
2021/06/02 01:59:44;;;;;;;4.26;1.54;;;;;;;9.29;80.61;99060.75;2026554;80;20499;-82
2021/06/02 02:03:07;;;;;;;2.83;1.50;;;;;;;9.28;80.82;99061.63;2024558;77;23428;-83
2021/06/02 02:06:49;;;;;;;4.15;1.73;;;;;;;9.29;81.10;99065.94;2028025;80;20161;-82
2021/06/02 02:10:16;;;;;;;1.52;1.42;;;;;;;9.28;80.83;99062.47;2024167;80;20501;-82
2021/06/02 02:14:09;;;;;;;2.01;1.84;;;;;;;9.28;80.62;99067.66;2019126;80;20246;-75
2021/06/02 02:17:55;;;;;;;2.89;1.44;;;;;;;9.20;80.52;99072.03;1993949;78;22356;-76
2021/06/02 02:21:22;;;;;;;3.10;1.44;;;;;;;9.02;80.88;99074.69;2013613;80;20258;-76
2021/06/02 02:24:55;;;;;;;3.58;1.61;;;;;;;8.95;81.37;99079.00;2013360;80;20288;-76
2021/06/02 02:28:21;;;;;;;1.92;1.75;;;;;;;8.98;81.55;99075.56;2013939;80;20208;-76
2021/06/02 02:31:26;;;;;;;2.30;1.61;;;;;;;9.03;81.43;99071.22;2014209;77;23293;-76
2021/06/02 02:34:56;;;;;;;3.38;1.63;;;;;;;9.03;81.28;99079.00;2018791;80;20621;-75
2021/06/02 02:38:06;;;;;;;3.71;1.58;;;;;;;9.05;81.16;99079.84;2019194;80;20248;-76
2021/06/02 02:41:31;;;;;;;3.21;1.86;;;;;;;9.04;81.05;99089.34;2016668;80;20229;-76
2021/06/02 02:44:54;;;;;;;2.79;1.42;;;;;;;9.00;80.78;99087.66;2016276;80;20360;-76
2021/06/02 02:48:10;;;;;;;2.59;1.55;;;;;;;8.81;80.96;99087.69;2017012;78;24201;-76
2021/06/02 02:51:31;;;;;;;4.06;1.66;;;;;;;8.72;81.41;99091.16;2018142;80;20699;-78
2021/06/02 02:54:57;;;;;;;4.04;2.30;;;;;;;8.71;81.54;99092.03;2019152;80;20204;-76
2021/06/02 02:58:02;;;;;;;1.90;1.73;;;;;;;8.71;81.88;99089.44;2018566;80;20167;-77
2021/06/02 03:01:17;;;;;;;1.49;1.39;;;;;;;8.71;82.10;99085.13;2017171;77;23283;-76
2021/06/02 03:04:25;;;;;;;1.75;1.65;;;;;;;8.73;82.10;99083.38;2017208;80;20202;-76
2021/06/02 03:07:35;;;;;;;2.53;1.77;;;;;;;8.70;81.87;99080.81;2017488;80;20770;-77
2021/06/02 03:10:42;;;;;;;3.41;1.59;;;;;;;8.61;81.88;99085.13;2017947;80;20184;-76
2021/06/02 03:14:19;;;;;;;3.89;1.81;;;;;;;8.62;82.17;99081.69;2017231;80;20179;-76
2021/06/02 03:17:40;;;;;;;2.11;1.52;;;;;;;8.65;82.29;99084.28;2001606;78;22185;-76
2021/06/02 03:20:58;;;;;;;2.01;1.51;;;;;;;8.59;82.11;99079.09;2007143;80;20188;-77
2021/06/02 03:24:12;;;;;;;2.15;1.73;;;;;;;8.60;82.30;99091.16;2006931;80;20173;-77
2021/06/02 03:27:30;;;;;;;2.59;1.89;;;;;;;8.51;82.12;99088.59;2007097;80;20173;-77
2021/06/02 03:30:36;;;;;;;4.53;1.85;;;;;;;8.44;82.55;99095.53;2007616;77;23799;-76
2021/06/02 03:34:13;;;;;;;3.14;1.90;;;;;;;8.47;83.00;99098.09;2017590;80;20164;-76
2021/06/02 03:37:39;;;;;;;2.44;1.81;;;;;;;8.59;82.64;99092.03;2017244;80;20179;-76
2021/06/02 03:41:05;;;;;;;2.33;2.11;;;;;;;8.61;82.06;99100.66;2016821;80;20583;-76
2021/06/02 03:44:19;;;;;;;2.42;1.67;;;;;;;8.52;82.36;99109.28;2016643;80;20276;-76
2021/06/02 03:47:53;;;;;;;1.89;1.74;;;;;;;8.52;82.78;99109.28;2013447;78;34609;-76
2021/06/02 03:51:01;;;;;;;3.90;1.90;;;;;;;8.61;83.15;99104.09;2012162;80;20169;-77
2021/06/02 03:54:12;;;;;;;4.01;1.77;;;;;;;8.68;83.00;99115.31;2011822;80;20257;-78
2021/06/02 03:57:15;;;;;;;2.17;1.92;;;;;;;8.69;83.27;99119.63;2012310;80;20619;-78
2021/06/02 04:00:27;;;;;;;3.17;2.03;;;;;;;8.77;83.59;99126.50;2023112;80;20168;-82
2021/06/02 04:03:57;;;;;;;2.50;1.58;;;;;;;8.97;83.41;99129.06;2021911;80;20237;-82
2021/06/02 04:07:18;;;;;;;2.33;1.86;;;;;;;9.07;82.89;99123.00;2025931;80;20282;-83
2021/06/02 04:10:40;;;;;;;3.50;1.79;;;;;;;9.24;82.82;99124.69;2024035;80;20216;-81
2021/06/02 04:13:53;;;;;;;2.50;2.00;;;;;;;9.41;81.90;99122.03;2025431;80;20172;-83
2021/06/02 04:16:56;;;;;;;5.18;1.98;;;;;;;9.54;81.21;99121.97;2028234;80;20198;-84
2021/06/02 04:20:02;;;;;;;5.50;2.00;;;;;;;9.64;81.39;99118.47;2026172;80;20176;-84
2021/06/02 04:23:08;;;;;;;5.47;2.21;;;;;;;9.76;81.24;99116.69;2023838;80;20204;-82
2021/06/02 04:26:11;;;;;;;2.28;2.08;;;;;;;9.88;81.01;99114.03;2024110;80;20285;-83
2021/06/02 04:29:15;;;;;;;3.08;2.03;;;;;;;9.90;80.56;99114.88;2026710;80;20172;-85
2021/06/02 04:32:18;;;;;;;4.26;1.71;;;;;;;9.84;80.50;99117.47;2010905;78;29271;-76
2021/06/02 04:35:21;;;;;;;3.10;1.95;;;;;;;9.81;80.50;99118.38;2011364;80;20320;-77
2021/06/02 04:38:24;;;;;;;3.30;2.22;;;;;;;9.85;80.76;99122.66;2012318;80;20172;-78
2021/06/02 04:41:28;;;;;;;4.03;2.06;;;;;;;10.05;80.80;99121.66;2011847;80;20169;-78
2021/06/02 04:44:32;;;;;;;3.10;1.61;;;;;;;10.28;80.23;99128.47;2012489;80;20261;-77
2021/06/02 04:47:35;;;;;;;2.76;1.99;;;;;;;10.51;79.31;99130.00;2014885;78;23499;-77
2021/06/02 04:50:54;;;;;;;3.79;1.71;;;;;;;10.70;78.93;99128.13;2016580;80;20160;-77
2021/06/02 04:54:31;;;;;;;2.09;1.83;;;;;;;10.93;78.94;99135.69;2017188;80;20678;-78
2021/06/02 04:58:05;;;;;;;3.17;1.76;;;;;;;11.11;77.84;99140.69;2017068;80;20192;-77
2021/06/02 05:01:32;;;;;;;2.41;2.14;;;;;;;11.10;77.10;99142.44;2013645;77;21049;-77
2021/06/02 05:05:12;;;;;;;2.34;1.83;;;;;;;11.14;76.69;99132.88;2011845;80;20574;-77
2021/06/02 05:08:40;;;;;;;3.04;2.30;;;;;;;11.17;76.55;99143.25;2011054;80;20176;-77
2021/06/02 05:12:01;;;;;;;4.47;1.66;;;;;;;11.25;76.01;99132.75;2011677;80;20680;-77
2021/06/02 05:15:34;;;;;;;2.59;1.75;;;;;;;11.21;75.83;99134.53;2011159;80;20282;-77
2021/06/02 05:19:18;;;;;;;7.43;2.05;;;;;;;11.28;75.61;99130.97;2011000;80;20210;-77
2021/06/02 05:22:38;;;;;;;2.34;2.10;;;;;;;11.37;75.92;99136.06;2009908;80;20628;-77
2021/06/02 05:26:06;;;;;;;2.38;1.73;;;;;;;11.59;75.95;99143.63;2016101;80;20180;-77
2021/06/02 05:29:25;;;;;;;3.45;1.91;;;;;;;12.24;74.77;99134.94;2017350;80;20199;-76
2021/06/02 05:32:44;;;;;;;7.68;2.17;;;;;;;13.08;71.71;99136.09;2015487;78;20829;-77
2021/06/02 05:36:22;;;;;;;3.69;1.81;;;;;;;13.85;68.63;99136.31;2016389;80;20217;-77
2021/06/02 05:39:43;;;;;;;4.59;1.74;;;;;;;14.69;65.84;99134.34;2017002;80;20180;-77
2021/06/02 05:42:58;;;;;;;3.96;2.06;;;;;;;15.33;63.03;99134.44;2017296;80;20644;-77
2021/06/02 05:46:33;;;;;;;4.11;1.92;;;;;;;15.89;60.45;99131.97;2015084;77;21179;-77
2021/06/02 05:49:52;;;;;;;2.09;1.60;;;;;;;16.26;60.32;99129.91;2013473;80;20343;-78
2021/06/02 05:53:11;;;;;;;3.42;1.54;;;;;;;16.61;59.74;99141.03;2012687;80;20184;-78
2021/06/02 05:56:19;;;;;;;;;;;;;;;17.16;58.10;99136.56;2013087;80;20222;-78
2021/06/02 05:59:49;;;;;;;2.04;1.60;;;;;;;17.53;56.88;99138.72;2013704;80;20502;-78
2021/06/02 06:02:58;;;;;;;2.64;1.60;;;;;;;18.04;54.74;99135.94;2016999;77;21702;-78
2021/06/02 06:06:11;;;;;;;3.58;1.56;;;;;;;18.63;52.27;99137.13;2018728;80;20171;-79
2021/06/02 06:09:44;;;;;;;4.55;1.64;;;;;;;19.12;51.14;99129.78;2019514;80;20742;-78
2021/06/02 06:13:11;;;;;;;3.13;1.52;;;;;;;19.76;49.32;99134.88;2019521;80;20323;-79
2021/06/02 06:16:32;;;;;;;2.75;1.06;;;;;;;20.38;47.42;99126.59;2016924;77;23708;-80
2021/06/02 06:20:15;;;;;;;2.16;0.80;;;;;;;20.99;44.85;99133.28;2013682;80;20206;-80
2021/06/02 06:23:46;;;;;;;2.40;1.15;;;;;;;21.45;43.12;99134.44;2015064;80;20622;-79
2021/06/02 06:27:07;;;;;;;3.67;0.94;;;;;;;21.85;42.09;99134.94;2015710;80;20252;-79
2021/06/02 06:30:35;;;;;;;4.61;1.16;;;;;;;22.19;40.30;99136.59;2024311;80;20184;-85
2021/06/02 06:34:08;;;;;;;4.18;0.93;;;;;;;22.47;39.26;99130.63;2027278;70;20209;-82
2021/06/02 06:37:13;;;;;;;3.96;1.15;;;;;;;22.75;38.99;99140.44;2014994;80;20687;-81
2021/06/02 06:40:21;;;;;;;1.54;0.88;;;;;;;22.90;39.16;99143.09;2016868;80;20221;-81
2021/06/02 06:43:24;;;;;;;1.59;1.30;;;;;;;23.03;38.33;99145.88;2015097;80;20204;-81
2021/06/02 06:46:29;;;;;;;3.06;1.10;;;;;;;23.12;38.50;99142.66;2013754;80;20323;-81
2021/06/02 06:49:32;;;;;;;3.00;0.82;;;;;;;23.20;38.22;99142.22;2014212;80;20182;-80
2021/06/02 06:52:37;;;;;;;5.13;1.20;;;;;;;23.22;38.29;99148.28;2014200;80;20165;-80
2021/06/02 06:55:40;;;;;;;5.21;1.30;;;;;;;23.40;38.13;99141.00;2015011;80;20173;-82
2021/06/02 06:58:45;;;;;;;5.74;1.31;;;;;;;23.51;37.85;99144.69;2012267;80;20165;-79
2021/06/02 07:01:48;;;;;;;4.81;1.00;;;;;;;23.69;37.84;99147.19;2013962;78;23846;-80
2021/06/02 07:04:51;;;;;;;3.22;0.91;;;;;;;23.93;36.52;99147.47;2015830;80;20261;-79
2021/06/02 07:07:55;;;;;;;5.20;1.14;;;;;;;24.30;36.03;99148.66;2014991;80;20226;-79
2021/06/02 07:11:02;;;;;;;8.63;1.11;;;;;;;24.59;36.29;99142.28;2021035;80;21032;-82
2021/06/02 07:14:11;;;;;;;4.91;1.20;;;;;;;24.82;35.90;99135.47;2024689;80;20172;-83
2021/06/02 07:17:15;;;;;;;1.54;1.00;;;;;;;24.88;36.02;99151.00;2021383;78;23270;-80
2021/06/02 07:20:22;;;;;;;2.81;0.90;;;;;;;24.76;34.75;99149.16;2017392;80;20177;-81
2021/06/02 07:23:25;;;;;;;1.81;1.00;;;;;;;24.68;34.96;99147.00;2016158;80;20213;-81
2021/06/02 07:26:29;;;;;;;3.51;0.90;;;;;;;24.55;36.00;99150.56;2014985;80;20206;-80
2021/06/02 07:29:53;;;;;;;7.66;1.00;;;;;;;24.76;35.62;99149.16;2015368;80;20303;-81
2021/06/02 07:32:55;;;;;;;3.00;1.14;;;;;;;24.95;35.97;99146.97;2020213;77;23158;-83
2021/06/02 07:35:59;;;;;;;6.64;1.40;;;;;;;25.14;35.62;99148.44;2021874;80;20204;-82
2021/06/02 07:39:04;;;;;;;1.77;0.89;;;;;;;25.32;35.26;99143.66;2016857;80;20189;-83
2021/06/02 07:42:07;;;;;;;1.40;0.80;;;;;;;25.62;35.94;99144.19;2016095;80;20461;-81
2021/06/02 07:45:10;;;;;;;2.53;1.27;;;;;;;25.74;34.95;99148.66;2013992;80;20184;-83
2021/06/02 07:48:13;;;;;;;3.05;1.29;;;;;;;25.47;33.94;99145.25;2017190;80;21434;-82
2021/06/02 07:51:16;;;;;;;1.65;0.82;;;;;;;25.29;35.36;99144.69;2017021;80;20336;-82
2021/06/02 07:54:20;;;;;;;5.89;0.80;;;;;;;25.47;36.94;99143.44;2024800;80;20194;-86
2021/06/02 07:57:24;;;;;;;4.74;0.90;;;;;;;25.57;36.19;99141.84;2008611;80;20188;-80
2021/06/02 08:00:27;;;;;;;5.29;0.90;;;;;;;25.70;36.62;99139.22;2006976;78;23283;-80
2021/06/02 08:03:29;;;;;;;1.88;0.85;;;;;;;25.84;35.63;99136.41;2002404;81;20243;-81
2021/06/02 08:06:32;;;;;;;5.57;0.80;;;;;;;25.88;35.40;99148.56;2002039;81;20227;-79
2021/06/02 08:09:35;;;;;;;4.79;0.90;;;;;;;26.05;35.95;99149.16;2004342;80;20217;-79
2021/06/02 08:12:39;;;;;;;3.78;0.80;;;;;;;26.13;36.36;99150.28;2002502;81;20283;-81
2021/06/02 08:15:42;;;;;;;3.46;0.80;;;;;;;26.21;35.30;99147.06;2002138;78;24820;-81
2021/06/02 08:18:45;;;;;;;1.08;0.91;;;;;;;26.39;34.90;99147.56;2008086;80;20281;-81
2021/06/02 08:21:47;;;;;;;1.83;0.81;;;;;;;26.53;34.81;99150.06;2006755;80;20310;-79
2021/06/02 08:24:50;;;;;;;2.24;0.89;;;;;;;26.72;35.75;99154.88;2006986;80;20225;-79
2021/06/02 08:27:52;;;;;;;4.96;1.23;;;;;;;26.38;34.69;99157.38;2007303;80;20236;-81
2021/06/02 08:30:55;;;;;;;2.75;0.90;;;;;;;26.17;36.13;99161.56;2003853;78;21280;-80
2021/06/02 08:34:00;;;;;;;4.41;0.80;;;;;;;26.05;36.23;99163.31;2002121;81;21209;-82
2021/06/02 08:37:04;;;;;;;2.14;0.76;;;;;;;26.26;35.93;99163.56;2001753;81;20233;-81
2021/06/02 08:40:08;;;;;;;2.24;0.80;;;;;;;26.27;36.24;99162.63;2000710;81;20189;-80
2021/06/02 08:43:11;;;;;;;3.80;0.80;;;;;;;26.27;36.29;99162.63;2002289;81;20173;-80
2021/06/02 08:46:15;;;;;;;2.51;0.80;;;;;;;26.47;35.74;99156.72;2008421;78;21024;-80
2021/06/02 08:49:21;;;;;;;2.46;0.77;;;;;;;26.28;37.08;99159.00;2011737;80;20176;-78
2021/06/02 08:52:24;;;;;;;6.63;0.90;;;;;;;26.38;37.79;99156.53;2011848;80;20541;-78
2021/06/02 08:55:27;;;;;;;5.13;0.80;;;;;;;26.87;36.58;99160.88;2012089;80;20222;-78
2021/06/02 08:58:30;;;;;;;3.19;0.80;;;;;;;27.05;36.92;99163.03;2012165;80;20156;-77
2021/06/02 09:01:34;;;;;;;1.69;0.70;;;;;;;27.04;35.86;99163.16;2008488;80;22697;-77
2021/06/02 09:04:37;;;;;;;5.10;0.90;;;;;;;27.22;35.95;99169.75;2007282;80;20654;-77
2021/06/02 09:07:40;;;;;;;4.40;0.94;;;;;;;27.38;36.13;99158.78;2005933;80;20192;-79
2021/06/02 09:10:45;;;;;;;4.18;0.89;;;;;;;27.12;36.65;99157.25;2006687;80;20207;-76
2021/06/02 09:13:48;;;;;;;2.13;0.80;;;;;;;27.14;36.96;99161.50;2008122;80;20979;-78
2021/06/02 09:16:58;;;;;;;1.75;1.00;;;;;;;27.29;36.61;99163.00;2009034;78;49517;-77
2021/06/02 09:20:01;;;;;;;2.14;0.90;;;;;;;27.33;35.50;99166.28;2008178;80;20180;-78
2021/06/02 09:23:36;;;;;;;1.73;0.80;;;;;;;27.18;36.29;99156.78;2014114;80;20172;-85
2021/06/02 09:26:39;;;;;;;5.22;0.90;;;;;;;26.55;37.65;99144.63;2018290;80;20676;-87
2021/06/02 09:29:53;;;;;;;4.64;0.80;;;;;;;26.75;37.88;99165.31;2016036;80;20194;-87
2021/06/02 09:33:00;;;;;;;2.99;0.80;;;;;;;27.04;37.74;99157.81;2015735;78;21705;-87
2021/06/02 09:36:06;;;;;;;1.58;1.02;;;;;;;26.65;37.42;99154.50;2048094;70;20202;-88
2021/06/02 09:39:26;;;;;;;3.65;0.74;;;;;;;26.45;38.87;99152.47;2016434;80;20225;-87
2021/06/02 09:42:29;;;;;;;4.19;0.80;;;;;;;26.79;38.35;99150.81;2016142;80;20169;-87
2021/06/02 09:45:35;;;;;;;5.30;1.08;;;;;;;27.35;39.10;99148.34;2015350;77;22977;-87
2021/06/02 09:48:40;;;;;;;1.74;1.00;;;;;;;27.73;37.45;99160.53;2019808;80;20172;-78
2021/06/02 09:51:44;;;;;;;2.88;1.00;;;;;;;27.13;37.41;99149.16;2013216;80;20249;-78
2021/06/02 09:54:47;;;;;;;4.13;0.73;;;;;;;27.09;37.99;99147.66;2012479;80;20435;-75
2021/06/02 09:58:14;;;;;;;2.92;1.04;;;;;;;27.49;40.30;99149.94;2012610;80;20198;-77
2021/06/02 10:01:18;;;;;;;1.75;0.80;;;;;;;28.15;38.60;99156.25;2009276;77;21864;-77
2021/06/02 10:04:36;;;;;;;3.59;0.81;;;;;;;28.48;37.27;99147.38;2012648;80;20191;-77
2021/06/02 10:07:43;;;;;;;;;;;;;;;28.50;37.25;99151.59;2012899;80;20311;-79
2021/06/02 10:10:45;;;;;;;3.06;0.95;;;;;;;28.13;37.64;99148.38;2012520;80;20123;-76
2021/06/02 10:13:51;;;;;;;2.09;0.94;;;;;;;28.52;38.38;99149.66;2013241;80;20161;-76
2021/06/02 10:16:55;;;;;;;2.59;0.88;;;;;;;28.76;36.56;99153.97;2011310;77;64097;-77
2021/06/02 10:20:04;;;;;;;6.30;0.84;;;;;;;28.19;37.22;99155.06;2011688;80;20202;-76
2021/06/02 10:23:06;;;;;;;1.84;0.80;;;;;;;28.45;37.57;99155.63;2011813;80;20226;-76
2021/06/02 10:26:13;;;;;;;3.71;0.90;;;;;;;28.51;37.12;99142.59;2012636;80;20462;-76
2021/06/02 10:29:16;;;;;;;3.20;0.91;;;;;;;28.53;37.36;99145.16;2012033;80;20258;-76
2021/06/02 10:32:20;;;;;;;3.95;0.90;;;;;;;28.72;36.99;99144.47;2010685;77;22413;-75
2021/06/02 10:35:23;;;;;;;1.41;0.80;;;;;;;29.22;37.49;99139.41;2010752;80;20197;-76
2021/06/02 10:38:31;;;;;;;1.73;0.85;;;;;;;29.11;34.50;99146.53;2011909;80;20628;-75
2021/06/02 10:41:45;;;;;;;1.47;0.90;;;;;;;29.19;36.01;99146.72;2012508;80;20626;-77
2021/06/02 10:44:53;;;;;;;3.67;0.85;;;;;;;29.01;35.42;99140.25;2011910;80;20202;-77
2021/06/02 10:48:02;;;;;;;3.38;0.90;;;;;;;28.84;36.16;99143.47;2010861;78;22703;-77
2021/06/02 10:51:05;;;;;;;1.16;0.91;;;;;;;28.71;35.77;99140.09;2012068;80;20194;-77
2021/06/02 10:54:29;;;;;;;2.25;0.90;;;;;;;28.77;36.72;99145.81;2011777;80;20653;-77
2021/06/02 10:57:32;;;;;;;2.53;0.90;;;;;;;29.06;36.44;99140.69;2011930;80;20184;-79
2021/06/02 11:00:35;;;;;;;2.19;0.80;;;;;;;28.69;36.43;99137.56;2011454;77;27593;-73
2021/06/02 11:03:39;;;;;;;3.76;1.09;;;;;;;28.79;36.64;99141.19;2011304;80;20184;-77
2021/06/02 11:06:43;;;;;;;2.09;0.80;;;;;;;28.88;35.79;99131.56;2008737;80;20189;-77
2021/06/02 11:10:00;;;;;;;2.22;0.73;;;;;;;29.16;36.22;99138.97;2011208;80;20331;-77
2021/06/02 11:13:05;;;;;;;2.08;0.90;;;;;;;29.13;35.32;99141.91;2012370;80;20221;-76
2021/06/02 11:16:37;;;;;;;5.01;0.80;;;;;;;29.40;35.10;99137.81;2011045;78;25086;-77
2021/06/02 11:19:43;;;;;;;1.71;0.64;;;;;;;29.63;33.77;99127.84;2012435;80;20221;-76
2021/06/02 11:23:04;;;;;;;2.26;0.79;;;;;;;29.66;34.38;99128.44;2011866;80;20662;-76
2021/06/02 11:26:26;;;;;;;5.21;1.20;;;;;;;30.05;34.82;99128.59;2011682;80;20252;-77
2021/06/02 11:29:28;;;;;;;5.55;0.90;;;;;;;30.13;34.12;99135.94;2013645;80;20226;-91
2021/06/02 11:32:46;;;;;;;3.11;0.60;;;;;;;29.88;32.67;99138.09;2011151;77;24429;-87
2021/06/02 11:35:54;;;;;;;1.79;0.88;;;;;;;29.57;34.45;99129.22;2015692;80;20181;-87
2021/06/02 11:38:56;;;;;;;1.23;0.80;;;;;;;30.12;34.34;99132.41;2012604;80;20189;-81
2021/06/02 11:42:07;;;;;;;1.34;0.50;;;;;;;30.18;33.56;99139.06;2017723;80;20308;-90
2021/06/02 11:45:13;;;;;;;2.09;0.80;;;;;;;30.24;33.24;99142.03;2017525;80;20203;-85
2021/06/02 11:48:20;;;;;;;1.50;0.80;;;;;;;30.01;32.15;99138.72;2015068;78;20472;-88
2021/06/02 11:51:23;;;;;;;2.31;0.71;;;;;;;29.52;33.18;99136.81;2016177;80;20602;-87
2021/06/02 11:54:44;;;;;;;2.06;0.80;;;;;;;29.70;34.51;99129.84;2014806;80;20204;-88
2021/06/02 11:57:50;;;;;;;0.85;0.70;;;;;;;29.70;34.58;99139.72;2011705;80;20161;-80
2021/06/02 12:00:53;;;;;;;4.51;0.80;;;;;;;29.19;35.65;99132.50;2010824;77;22680;-77
2021/06/02 12:03:57;;;;;;;1.71;0.89;;;;;;;29.56;35.19;99137.38;2010994;80;20184;-77
2021/06/02 12:06:59;;;;;;;0.90;0.79;;;;;;;29.97;35.38;99137.25;2011242;80;20225;-79
2021/06/02 12:10:02;;;;;;;1.13;0.80;;;;;;;30.22;34.48;99138.66;2011009;80;20966;-76
2021/06/02 12:13:11;;;;;;;1.31;0.73;;;;;;;30.27;35.61;99141.75;2011080;80;20184;-75
2021/06/02 12:16:22;;;;;;;4.03;0.88;;;;;;;30.19;34.41;99138.94;2010055;77;21343;-76
2021/06/02 12:19:25;;;;;;;3.06;0.80;;;;;;;30.06;34.86;99143.69;2007954;80;20755;-79
2021/06/02 12:22:28;;;;;;;1.36;0.71;;;;;;;30.00;35.58;99133.50;2011594;80;20246;-81
2021/06/02 12:25:34;;;;;;;3.64;0.80;;;;;;;30.48;34.85;99135.44;2011611;80;20734;-76
2021/06/02 12:28:47;;;;;;;1.39;0.82;;;;;;;30.74;34.34;99139.31;2010795;80;20623;-77
2021/06/02 12:31:54;;;;;;;1.88;0.74;;;;;;;30.35;33.70;99141.94;2010386;78;26521;-77
2021/06/02 12:34:57;;;;;;;2.61;0.70;;;;;;;30.67;35.03;99133.66;2015254;80;20586;-75
2021/06/02 12:38:01;;;;;;;2.03;0.70;;;;;;;30.63;33.58;99142.97;2011614;80;20164;-75
2021/06/02 12:41:04;;;;;;;4.07;0.69;;;;;;;30.32;33.51;99144.88;2011042;80;20177;-76
2021/06/02 12:44:07;;;;;;;2.71;0.70;;;;;;;29.68;34.88;99139.00;2011685;80;20165;-75
2021/06/02 12:47:11;;;;;;;3.22;0.90;;;;;;;29.88;35.76;99134.56;2010140;78;64892;-76
2021/06/02 12:50:32;;;;;;;2.86;0.90;;;;;;;29.96;35.45;99137.41;2011295;80;20272;-75
2021/06/02 12:53:37;;;;;;;1.81;0.80;;;;;;;29.29;35.33;99130.75;2011729;80;20180;-74
2021/06/02 12:56:41;;;;;;;1.06;0.70;;;;;;;29.23;36.81;99141.09;2014270;80;20180;-76
2021/06/02 12:59:43;;;;;;;1.63;0.77;;;;;;;29.52;37.11;99141.31;2011390;80;20250;-76
2021/06/02 13:02:48;;;;;;;1.16;0.60;;;;;;;29.87;35.14;99132.88;2008586;78;109544;-77
2021/06/02 13:05:52;;;;;;;0.90;0.70;;;;;;;30.41;34.76;99137.84;2011535;80;20180;-76
2021/06/02 13:08:55;;;;;;;2.76;0.75;;;;;;;30.58;33.99;99125.59;2011146;80;20184;-77
2021/06/02 13:11:57;;;;;;;2.64;0.79;;;;;;;30.74;32.20;99133.97;2011606;80;20694;-76
2021/06/02 13:15:20;;;;;;;1.45;0.75;;;;;;;30.25;32.95;99133.03;2011291;80;20176;-75
2021/06/02 13:18:28;;;;;;;1.63;0.70;;;;;;;30.15;34.65;99144.69;2012343;80;20241;-76
2021/06/02 13:21:32;;;;;;;3.83;0.77;;;;;;;29.72;35.02;99145.78;2011150;80;20164;-76
2021/06/02 13:24:37;;;;;;;1.73;0.75;;;;;;;29.28;35.44;99147.78;2012756;80;20184;-75
2021/06/02 13:27:39;;;;;;;2.56;0.63;;;;;;;28.47;36.00;99146.50;2011354;80;20185;-74
2021/06/02 13:30:45;;;;;;;1.31;0.82;;;;;;;28.40;37.07;99147.16;2010936;78;20190;-74
2021/06/02 13:33:50;;;;;;;1.21;0.69;;;;;;;28.81;36.95;99144.56;2011617;80;20176;-84
2021/06/02 13:36:53;;;;;;;1.83;0.80;;;;;;;29.09;36.70;99139.63;2011541;80;20250;-72
2021/06/02 13:40:09;;;;;;;1.79;0.90;;;;;;;29.30;35.86;99136.94;2012150;80;20230;-75
2021/06/02 13:43:18;;;;;;;2.40;0.90;;;;;;;29.14;35.39;99132.03;2010752;80;20198;-75
2021/06/02 13:46:28;;;;;;;1.69;0.88;;;;;;;28.98;35.36;99132.50;2010560;78;22124;-75
2021/06/02 13:49:35;;;;;;;3.55;0.90;;;;;;;29.13;35.87;99133.88;2010638;80;20612;-75
2021/06/02 13:52:38;;;;;;;4.65;0.65;;;;;;;29.23;36.10;99130.41;2011489;80;20184;-75
2021/06/02 13:55:41;;;;;;;2.58;0.76;;;;;;;28.58;35.71;99135.81;2009050;80;20180;-75
2021/06/02 13:58:44;;;;;;;1.84;0.84;;;;;;;28.29;36.66;99134.66;2010802;80;20212;-76
2021/06/02 14:01:48;;;;;;;1.60;0.80;;;;;;;28.41;37.83;99135.50;2010387;77;21513;-76
2021/06/02 14:04:59;;;;;;;4.03;0.80;;;;;;;28.70;37.19;99128.56;2011901;80;20266;-76
2021/06/02 14:08:02;;;;;;;1.16;0.70;;;;;;;29.32;36.42;99129.63;2010491;80;20751;-76
2021/06/02 14:11:04;;;;;;;1.46;0.74;;;;;;;29.95;36.08;99123.16;2012760;80;20252;-76
2021/06/02 14:14:07;;;;;;;4.79;1.04;;;;;;;30.43;34.43;99118.94;2011948;80;20172;-77
2021/06/02 14:17:12;;;;;;;2.47;0.60;;;;;;;30.31;34.14;99119.06;2011248;78;20221;-76
2021/06/02 14:20:16;;;;;;;1.35;0.70;;;;;;;30.14;34.51;99118.88;2012292;80;20710;-76
2021/06/02 14:23:19;;;;;;;2.63;0.64;;;;;;;30.07;33.64;99115.91;2010889;80;20226;-76
2021/06/02 14:26:23;;;;;;;1.15;0.79;;;;;;;29.72;34.25;99108.31;2011884;80;20235;-76
2021/06/02 14:29:25;;;;;;;3.58;0.90;;;;;;;29.62;33.84;99104.72;2011477;80;20176;-77
2021/06/02 14:32:28;;;;;;;3.65;1.05;;;;;;;29.64;33.82;99114.34;2009797;78;105739;-76
2021/06/02 14:35:31;;;;;;;1.40;0.86;;;;;;;29.71;34.92;99103.94;2011946;80;20739;-76
2021/06/02 14:38:35;;;;;;;1.81;0.70;;;;;;;29.68;33.62;99096.19;2012292;80;20219;-76
2021/06/02 14:41:39;;;;;;;1.90;0.70;;;;;;;29.42;34.07;99099.25;2012298;80;20172;-76
2021/06/02 14:44:42;;;;;;;1.42;0.90;;;;;;;29.20;33.89;99102.09;2012090;80;20267;-75
2021/06/02 14:47:45;;;;;;;1.84;0.80;;;;;;;29.35;34.58;99098.09;2011937;80;24082;-76
2021/06/02 14:50:47;;;;;;;2.24;0.76;;;;;;;29.30;33.99;99105.69;2012751;80;20196;-74
2021/06/02 14:53:52;;;;;;;2.33;0.90;;;;;;;29.09;34.31;99091.50;2027423;70;20221;-74
2021/06/02 14:56:56;;;;;;;1.65;0.80;;;;;;;28.78;34.55;99095.88;2011602;80;20214;-75
2021/06/02 15:00:00;;;;;;;3.17;0.93;;;;;;;28.30;35.22;99093.63;2013455;80;20184;-74
2021/06/02 15:03:03;;;;;;;3.92;0.70;;;;;;;28.39;36.53;99098.22;2007403;78;30955;-74